ABR272B EBLG-EGBB
Flight info
| Callsign | ABR272B |
|---|---|
| Flight time | 0h 56m |
| Altitude | 30000 |
| Route | BUB L608 DENUT L610 HEMEL |
| Aircraft | B738/M-SDE2E3FGHIRWXY/LB1 |
Departure
| Time | 2026-04-30 13:44 |
|---|---|
| Airport | Liège Airport (EBLG) |
Arrival
| Time | 2026-04-30 14:41 |
|---|---|
| Airport | Birmingham Airport (EGBB) |
| Time | Latitude | Longitude | Altitude | Speed | Heading |
|---|---|---|---|---|---|
| 2026-04-30 13:34 | 50.63350 | 5.44329 | 632 ft | 0 kts | 135° |
| 2026-04-30 13:36 | 50.63374 | 5.44294 | 632 ft | 3 kts | 142° |
| 2026-04-30 13:36 | 50.63390 | 5.44276 | 639 ft | 3 kts | 153° |
| 2026-04-30 13:36 | 50.63421 | 5.44269 | 638 ft | 2 kts | 223° |
| 2026-04-30 13:37 | 50.63423 | 5.44271 | 639 ft | 1 kts | 225° |
| 2026-04-30 13:41 | 50.63411 | 5.44253 | 639 ft | 7 kts | 225° |
| 2026-04-30 13:41 | 50.63368 | 5.44184 | 638 ft | 10 kts | 225° |
| 2026-04-30 13:41 | 50.63321 | 5.44111 | 642 ft | 10 kts | 225° |
| 2026-04-30 13:42 | 50.63272 | 5.44032 | 643 ft | 11 kts | 225° |
| 2026-04-30 13:42 | 50.63225 | 5.43958 | 639 ft | 9 kts | 225° |
| 2026-04-30 13:42 | 50.63245 | 5.43836 | 639 ft | 9 kts | 9° |
| 2026-04-30 13:43 | 50.63311 | 5.43837 | 640 ft | 10 kts | 340° |
| 2026-04-30 13:43 | 50.63375 | 5.43832 | 640 ft | 11 kts | 33° |
| 2026-04-30 13:43 | 50.63440 | 5.43934 | 637 ft | 17 kts | 46° |
| 2026-04-30 13:43 | 50.63606 | 5.44198 | 628 ft | 62 kts | 45° |
| 2026-04-30 13:44 | 50.64119 | 5.45016 | 642 ft | 142 kts | 49° |
| 2026-04-30 13:44 | 50.64882 | 5.46192 | 1424 ft | 161 kts | 50° |
| 2026-04-30 13:44 | 50.65678 | 5.47460 | 2613 ft | 162 kts | 52° |
| 2026-04-30 13:44 | 50.66448 | 5.48753 | 3630 ft | 167 kts | 53° |
| 2026-04-30 13:45 | 50.68092 | 5.51709 | 5323 ft | 195 kts | 55° |
| 2026-04-30 13:45 | 50.69037 | 5.53307 | 6108 ft | 202 kts | 52° |
| 2026-04-30 13:45 | 50.70024 | 5.54968 | 6768 ft | 215 kts | 51° |
| 2026-04-30 13:46 | 50.71319 | 5.56461 | 7211 ft | 250 kts | 30° |
| 2026-04-30 13:46 | 50.73076 | 5.57169 | 7962 ft | 271 kts | 7° |
| 2026-04-30 13:46 | 50.74968 | 5.56743 | 8907 ft | 277 kts | 343° |
| 2026-04-30 13:46 | 50.76622 | 5.55188 | 9404 ft | 281 kts | 318° |
| 2026-04-30 13:47 | 50.77762 | 5.52755 | 9516 ft | 280 kts | 296° |
| 2026-04-30 13:47 | 50.78424 | 5.49880 | 9578 ft | 276 kts | 285° |
| 2026-04-30 13:47 | 50.78870 | 5.46990 | 10086 ft | 269 kts | 281° |
| 2026-04-30 13:47 | 50.79208 | 5.43996 | 10669 ft | 285 kts | 279° |
| 2026-04-30 13:48 | 50.79534 | 5.40842 | 11392 ft | 298 kts | 278° |
| 2026-04-30 13:48 | 50.79850 | 5.37441 | 11670 ft | 329 kts | 278° |
| 2026-04-30 13:48 | 50.80180 | 5.33743 | 12211 ft | 347 kts | 278° |
| 2026-04-30 13:48 | 50.80521 | 5.29933 | 13133 ft | 352 kts | 278° |
| 2026-04-30 13:49 | 50.80863 | 5.26151 | 14194 ft | 355 kts | 278° |
| 2026-04-30 13:49 | 50.81218 | 5.22254 | 15054 ft | 361 kts | 278° |
| 2026-04-30 13:49 | 50.81578 | 5.18301 | 15971 ft | 365 kts | 278° |
| 2026-04-30 13:49 | 50.81947 | 5.14312 | 16925 ft | 369 kts | 279° |
| 2026-04-30 13:50 | 50.82432 | 5.10283 | 17771 ft | 376 kts | 282° |
| 2026-04-30 13:50 | 50.83593 | 5.02132 | 19481 ft | 384 kts | 283° |
| 2026-04-30 13:50 | 50.84190 | 4.97996 | 20294 ft | 387 kts | 283° |
| 2026-04-30 13:51 | 50.84783 | 4.93817 | 21059 ft | 392 kts | 282° |
| 2026-04-30 13:51 | 50.85368 | 4.89632 | 21811 ft | 397 kts | 282° |
| 2026-04-30 13:51 | 50.85959 | 4.85353 | 22636 ft | 400 kts | 283° |
| 2026-04-30 13:51 | 50.86551 | 4.81030 | 23359 ft | 405 kts | 283° |
| 2026-04-30 13:52 | 50.87148 | 4.76649 | 24069 ft | 409 kts | 282° |
| 2026-04-30 13:52 | 50.87746 | 4.72246 | 24816 ft | 408 kts | 282° |
| 2026-04-30 13:52 | 50.88340 | 4.67864 | 25622 ft | 406 kts | 282° |
| 2026-04-30 13:52 | 50.88931 | 4.63500 | 26418 ft | 405 kts | 282° |
| 2026-04-30 13:53 | 50.89509 | 4.59208 | 27195 ft | 403 kts | 282° |
| 2026-04-30 13:53 | 50.90192 | 4.54917 | 27979 ft | 402 kts | 289° |
| 2026-04-30 13:53 | 50.91280 | 4.50859 | 28747 ft | 399 kts | 300° |
| 2026-04-30 13:53 | 50.92206 | 4.48342 | 29254 ft | 398 kts | 302° |
| 2026-04-30 13:54 | 50.94145 | 4.43353 | 30199 ft | 398 kts | 303° |
| 2026-04-30 13:54 | 50.95629 | 4.39590 | 30288 ft | 406 kts | 303° |
| 2026-04-30 13:54 | 50.98591 | 4.31999 | 30281 ft | 402 kts | 302° |
| 2026-04-30 13:55 | 51.01455 | 4.24540 | 30286 ft | 399 kts | 302° |
| 2026-04-30 13:55 | 51.02919 | 4.20705 | 30302 ft | 414 kts | 302° |
| 2026-04-30 13:55 | 51.04435 | 4.16724 | 30303 ft | 428 kts | 302° |
| 2026-04-30 13:56 | 51.05997 | 4.12613 | 30298 ft | 441 kts | 302° |
| 2026-04-30 13:56 | 51.07600 | 4.08385 | 30293 ft | 452 kts | 302° |
| 2026-04-30 13:56 | 51.10877 | 3.99717 | 30272 ft | 461 kts | 301° |
| 2026-04-30 13:57 | 51.14176 | 3.90962 | 30253 ft | 461 kts | 301° |
| 2026-04-30 13:57 | 51.17442 | 3.82267 | 30251 ft | 459 kts | 301° |
| 2026-04-30 13:58 | 51.22326 | 3.69187 | 30248 ft | 456 kts | 299° |
| 2026-04-30 13:59 | 51.24542 | 3.59768 | 30256 ft | 454 kts | 281° |
| 2026-04-30 13:59 | 51.25548 | 3.51551 | 30249 ft | 454 kts | 280° |
| 2026-04-30 14:00 | 51.27014 | 3.40068 | 30251 ft | 454 kts | 281° |
| 2026-04-30 14:00 | 51.28937 | 3.25232 | 30250 ft | 455 kts | 281° |
| 2026-04-30 14:01 | 51.29986 | 3.16997 | 30252 ft | 456 kts | 280° |
| 2026-04-30 14:01 | 51.31245 | 3.07069 | 30243 ft | 456 kts | 280° |
| 2026-04-30 14:02 | 51.32698 | 2.95531 | 30239 ft | 455 kts | 280° |
| 2026-04-30 14:02 | 51.33730 | 2.87277 | 30245 ft | 455 kts | 280° |
| 2026-04-30 14:03 | 51.34964 | 2.77353 | 30240 ft | 455 kts | 280° |
| 2026-04-30 14:03 | 51.36189 | 2.67438 | 30241 ft | 455 kts | 279° |
| 2026-04-30 14:04 | 51.37409 | 2.57514 | 30245 ft | 454 kts | 279° |
| 2026-04-30 14:04 | 51.38621 | 2.47581 | 30244 ft | 455 kts | 279° |
| 2026-04-30 14:05 | 51.39817 | 2.37716 | 30248 ft | 455 kts | 279° |
| 2026-04-30 14:05 | 51.41014 | 2.27772 | 30248 ft | 455 kts | 279° |
| 2026-04-30 14:06 | 51.42829 | 2.12859 | 30249 ft | 455 kts | 279° |
| 2026-04-30 14:07 | 51.44631 | 1.97998 | 30252 ft | 455 kts | 279° |
| 2026-04-30 14:08 | 51.46384 | 1.83051 | 30251 ft | 455 kts | 278° |
| 2026-04-30 14:08 | 51.48108 | 1.68095 | 30246 ft | 454 kts | 278° |
| 2026-04-30 14:09 | 51.49249 | 1.58122 | 30245 ft | 454 kts | 278° |
| 2026-04-30 14:10 | 51.50933 | 1.43230 | 30240 ft | 454 kts | 278° |
| 2026-04-30 14:10 | 51.52053 | 1.33241 | 30237 ft | 455 kts | 278° |
| 2026-04-30 14:11 | 51.53165 | 1.23244 | 30248 ft | 455 kts | 277° |
| 2026-04-30 14:11 | 51.54262 | 1.13307 | 30245 ft | 455 kts | 277° |
| 2026-04-30 14:12 | 51.55358 | 1.03283 | 30246 ft | 455 kts | 277° |
| 2026-04-30 14:12 | 51.56445 | 0.93259 | 30235 ft | 456 kts | 277° |
| 2026-04-30 14:13 | 51.57524 | 0.83213 | 30236 ft | 456 kts | 277° |
| 2026-04-30 14:13 | 51.58596 | 0.73161 | 30246 ft | 456 kts | 277° |
| 2026-04-30 14:14 | 51.59654 | 0.63173 | 30240 ft | 457 kts | 277° |
| 2026-04-30 14:14 | 51.60687 | 0.53319 | 30248 ft | 457 kts | 276° |
| 2026-04-30 14:15 | 51.61734 | 0.43232 | 30238 ft | 457 kts | 276° |
| 2026-04-30 14:15 | 51.62772 | 0.33148 | 30245 ft | 457 kts | 276° |
| 2026-04-30 14:15 | 51.63289 | 0.28114 | 30104 ft | 450 kts | 276° |
| 2026-04-30 14:16 | 51.63791 | 0.23220 | 29778 ft | 439 kts | 276° |
| 2026-04-30 14:16 | 51.64276 | 0.18471 | 29281 ft | 433 kts | 277° |
| 2026-04-30 14:16 | 51.64988 | 0.13759 | 28664 ft | 434 kts | 286° |
| 2026-04-30 14:16 | 51.66134 | 0.09258 | 28087 ft | 433 kts | 292° |
| 2026-04-30 14:17 | 51.67391 | 0.04867 | 27518 ft | 433 kts | 293° |
| 2026-04-30 14:17 | 51.68684 | 0.00433 | 27019 ft | 441 kts | 293° |
| 2026-04-30 14:17 | 51.69991 | -0.04085 | 26481 ft | 447 kts | 293° |
| 2026-04-30 14:17 | 51.71294 | -0.08650 | 25946 ft | 448 kts | 292° |
| 2026-04-30 14:18 | 51.72578 | -0.13198 | 25418 ft | 443 kts | 292° |
| 2026-04-30 14:18 | 51.73841 | -0.17715 | 24897 ft | 440 kts | 292° |
| 2026-04-30 14:18 | 51.76327 | -0.26656 | 23874 ft | 434 kts | 292° |
| 2026-04-30 14:19 | 51.78760 | -0.35433 | 22620 ft | 428 kts | 292° |
| 2026-04-30 14:19 | 51.80060 | -0.39714 | 22325 ft | 425 kts | 301° |
| 2026-04-30 14:19 | 51.81994 | -0.43320 | 22249 ft | 426 kts | 320° |
| 2026-04-30 14:20 | 51.84433 | -0.45972 | 22154 ft | 418 kts | 329° |
| 2026-04-30 14:20 | 51.86934 | -0.48305 | 21652 ft | 414 kts | 331° |
| 2026-04-30 14:20 | 51.91899 | -0.52951 | 20368 ft | 411 kts | 329° |
| 2026-04-30 14:21 | 51.94309 | -0.55290 | 19794 ft | 408 kts | 328° |
| 2026-04-30 14:21 | 51.96725 | -0.57654 | 19248 ft | 404 kts | 328° |
| 2026-04-30 14:21 | 52.01490 | -0.62323 | 18142 ft | 397 kts | 328° |
| 2026-04-30 14:22 | 52.03849 | -0.64637 | 17535 ft | 395 kts | 328° |
| 2026-04-30 14:22 | 52.08514 | -0.69220 | 16396 ft | 388 kts | 328° |
| 2026-04-30 14:22 | 52.10816 | -0.71485 | 15842 ft | 386 kts | 329° |
| 2026-04-30 14:23 | 52.15376 | -0.75980 | 14768 ft | 381 kts | 329° |
| 2026-04-30 14:23 | 52.19844 | -0.80392 | 13732 ft | 376 kts | 329° |
| 2026-04-30 14:24 | 52.24017 | -0.85345 | 12616 ft | 370 kts | 307° |
| 2026-04-30 14:24 | 52.25268 | -0.88956 | 12111 ft | 363 kts | 287° |
| 2026-04-30 14:25 | 52.26435 | -0.96849 | 11137 ft | 356 kts | 279° |
| 2026-04-30 14:25 | 52.27443 | -1.04703 | 10183 ft | 351 kts | 279° |
| 2026-04-30 14:26 | 52.28459 | -1.12358 | 9180 ft | 344 kts | 279° |
| 2026-04-30 14:26 | 52.28972 | -1.16161 | 8711 ft | 341 kts | 279° |
| 2026-04-30 14:26 | 52.29967 | -1.23498 | 8255 ft | 312 kts | 279° |
| 2026-04-30 14:27 | 52.30422 | -1.26854 | 8249 ft | 291 kts | 278° |
| 2026-04-30 14:27 | 52.30846 | -1.29988 | 8232 ft | 276 kts | 278° |
| 2026-04-30 14:27 | 52.31250 | -1.33000 | 8151 ft | 267 kts | 278° |
| 2026-04-30 14:28 | 52.32027 | -1.38835 | 7709 ft | 262 kts | 278° |
| 2026-04-30 14:28 | 52.32408 | -1.41699 | 7483 ft | 260 kts | 278° |
| 2026-04-30 14:28 | 52.32791 | -1.44581 | 7287 ft | 259 kts | 278° |
| 2026-04-30 14:28 | 52.33172 | -1.47440 | 7071 ft | 257 kts | 278° |
| 2026-04-30 14:29 | 52.34544 | -1.52822 | 6573 ft | 260 kts | 299° |
| 2026-04-30 14:29 | 52.36483 | -1.57819 | 5968 ft | 260 kts | 299° |
| 2026-04-30 14:30 | 52.39686 | -1.64974 | 5220 ft | 261 kts | 306° |
| 2026-04-30 14:31 | 52.41951 | -1.69601 | 4756 ft | 259 kts | 306° |
| 2026-04-30 14:31 | 52.44328 | -1.74009 | 4217 ft | 258 kts | 311° |
| 2026-04-30 14:31 | 52.45529 | -1.76167 | 4037 ft | 253 kts | 311° |
| 2026-04-30 14:32 | 52.47780 | -1.80272 | 3974 ft | 231 kts | 311° |
| 2026-04-30 14:32 | 52.48818 | -1.82185 | 3879 ft | 224 kts | 311° |
| 2026-04-30 14:32 | 52.49837 | -1.84089 | 3727 ft | 221 kts | 311° |
| 2026-04-30 14:33 | 52.50843 | -1.86002 | 3547 ft | 221 kts | 311° |
| 2026-04-30 14:33 | 52.52809 | -1.89856 | 3176 ft | 219 kts | 311° |
| 2026-04-30 14:33 | 52.53783 | -1.91768 | 2976 ft | 219 kts | 311° |
| 2026-04-30 14:34 | 52.54763 | -1.93693 | 2748 ft | 218 kts | 311° |
| 2026-04-30 14:34 | 52.55719 | -1.95578 | 2656 ft | 212 kts | 311° |
| 2026-04-30 14:34 | 52.56674 | -1.97440 | 2533 ft | 213 kts | 316° |
| 2026-04-30 14:34 | 52.57881 | -1.98594 | 2480 ft | 199 kts | 355° |
| 2026-04-30 14:35 | 52.59838 | -1.96976 | 2488 ft | 155 kts | 79° |
| 2026-04-30 14:35 | 52.59712 | -1.95314 | 2499 ft | 147 kts | 117° |
| 2026-04-30 14:35 | 52.59219 | -1.93854 | 2494 ft | 146 kts | 120° |
| 2026-04-30 14:36 | 52.58705 | -1.92412 | 2465 ft | 146 kts | 120° |
| 2026-04-30 14:36 | 52.58190 | -1.90995 | 2495 ft | 145 kts | 120° |
| 2026-04-30 14:36 | 52.57667 | -1.89566 | 2495 ft | 147 kts | 120° |
| 2026-04-30 14:36 | 52.57037 | -1.88245 | 2494 ft | 150 kts | 137° |
| 2026-04-30 14:37 | 52.56255 | -1.87161 | 2478 ft | 146 kts | 136° |
| 2026-04-30 14:37 | 52.55483 | -1.86159 | 2470 ft | 138 kts | 139° |
| 2026-04-30 14:37 | 52.54725 | -1.85235 | 2361 ft | 135 kts | 141° |
| 2026-04-30 14:37 | 52.53952 | -1.84348 | 2176 ft | 135 kts | 141° |
| 2026-04-30 14:38 | 52.53180 | -1.83484 | 1994 ft | 133 kts | 142° |
| 2026-04-30 14:38 | 52.52415 | -1.82631 | 1819 ft | 132 kts | 142° |
| 2026-04-30 14:38 | 52.51671 | -1.81805 | 1650 ft | 130 kts | 142° |
| 2026-04-30 14:38 | 52.50932 | -1.80995 | 1461 ft | 126 kts | 144° |
| 2026-04-30 14:39 | 52.50168 | -1.80151 | 1332 ft | 139 kts | 142° |
| 2026-04-30 14:39 | 52.49389 | -1.79272 | 1143 ft | 133 kts | 143° |
| 2026-04-30 14:39 | 52.48627 | -1.78442 | 925 ft | 130 kts | 142° |
| 2026-04-30 14:40 | 52.47207 | -1.76846 | 540 ft | 121 kts | 140° |
| 2026-04-30 14:40 | 52.46506 | -1.76050 | 363 ft | 125 kts | 141° |
| 2026-04-30 14:40 | 52.45803 | -1.75258 | 321 ft | 112 kts | 146° |
| 2026-04-30 14:40 | 52.45281 | -1.74681 | 326 ft | 68 kts | 147° |
| 2026-04-30 14:41 | 52.45061 | -1.74442 | 326 ft | 19 kts | 146° |
| 2026-04-30 14:41 | 52.44991 | -1.74397 | 329 ft | 11 kts | 198° |
| 2026-04-30 14:41 | 52.44972 | -1.74517 | 326 ft | 13 kts | 280° |
| 2026-04-30 14:41 | 52.44990 | -1.74662 | 328 ft | 12 kts | 281° |
| 2026-04-30 14:42 | 52.45029 | -1.74756 | 326 ft | 11 kts | 326° |
| 2026-04-30 14:42 | 52.45096 | -1.74828 | 324 ft | 12 kts | 326° |
| 2026-04-30 14:42 | 52.45164 | -1.74904 | 326 ft | 10 kts | 326° |
| 2026-04-30 14:42 | 52.45180 | -1.74989 | 324 ft | 9 kts | 248° |
| 2026-04-30 14:43 | 52.45150 | -1.75071 | 326 ft | 8 kts | 237° |
| 2026-04-30 14:43 | 52.45130 | -1.75123 | 326 ft | 4 kts | 238° |
| 2026-04-30 14:43 | 52.45106 | -1.75156 | 326 ft | 4 kts | 199° |
| 2026-04-30 14:43 | 52.45084 | -1.75162 | 327 ft | 3 kts | 187° |
| 2026-04-30 14:44 | 52.45059 | -1.75167 | 327 ft | 3 kts | 187° |
| 2026-04-30 14:44 | 52.45046 | -1.75170 | 325 ft | 2 kts | 187° |
| 2026-04-30 14:44 | 52.45041 | -1.75171 | 326 ft | 0 kts | 187° |